sensor_id;sensor_type;location;lat;lon;timestamp;P1;durP1;ratioP1;P2;durP2;ratioP2
51190;SDS011;37253;48.736;9.294;2024-01-30T00:01:30;6.00;;;2.80;;
51190;SDS011;37253;48.736;9.294;2024-01-30T00:03:31;2.70;;;2.15;;
51190;SDS011;37253;48.736;9.294;2024-01-30T00:05:31;3.88;;;1.92;;
51190;SDS011;37253;48.736;9.294;2024-01-30T00:07:31;6.03;;;2.20;;
51190;SDS011;37253;48.736;9.294;2024-01-30T00:09:32;2.90;;;1.92;;
51190;SDS011;37253;48.736;9.294;2024-01-30T00:11:32;2.40;;;2.00;;
51190;SDS011;37253;48.736;9.294;2024-01-30T00:13:33;4.57;;;2.58;;
51190;SDS011;37253;48.736;9.294;2024-01-30T00:15:34;5.32;;;2.65;;
51190;SDS011;37253;48.736;9.294;2024-01-30T00:17:35;3.90;;;2.20;;
51190;SDS011;37253;48.736;9.294;2024-01-30T00:19:36;4.55;;;2.35;;
51190;SDS011;37253;48.736;9.294;2024-01-30T00:21:37;4.30;;;2.00;;
51190;SDS011;37253;48.736;9.294;2024-01-30T00:23:37;2.65;;;2.00;;
51190;SDS011;37253;48.736;9.294;2024-01-30T00:25:37;3.25;;;2.13;;
51190;SDS011;37253;48.736;9.294;2024-01-30T00:27:38;2.65;;;2.10;;
51190;SDS011;37253;48.736;9.294;2024-01-30T00:29:38;3.50;;;2.15;;
51190;SDS011;37253;48.736;9.294;2024-01-30T00:31:38;3.13;;;2.40;;
51190;SDS011;37253;48.736;9.294;2024-01-30T00:33:39;5.70;;;2.05;;
51190;SDS011;37253;48.736;9.294;2024-01-30T00:35:39;4.38;;;2.22;;
51190;SDS011;37253;48.736;9.294;2024-01-30T00:37:39;2.97;;;2.28;;
51190;SDS011;37253;48.736;9.294;2024-01-30T00:39:40;3.63;;;2.03;;
51190;SDS011;37253;48.736;9.294;2024-01-30T00:41:40;3.53;;;2.47;;
51190;SDS011;37253;48.736;9.294;2024-01-30T00:43:40;4.10;;;2.30;;
51190;SDS011;37253;48.736;9.294;2024-01-30T00:45:41;2.20;;;2.00;;
51190;SDS011;37253;48.736;9.294;2024-01-30T00:47:41;2.45;;;2.05;;
51190;SDS011;37253;48.736;9.294;2024-01-30T00:49:42;3.17;;;2.25;;
51190;SDS011;37253;48.736;9.294;2024-01-30T00:51:42;3.05;;;1.95;;
51190;SDS011;37253;48.736;9.294;2024-01-30T00:53:43;2.78;;;2.08;;
51190;SDS011;37253;48.736;9.294;2024-01-30T00:55:43;3.35;;;2.00;;
51190;SDS011;37253;48.736;9.294;2024-01-30T00:57:43;2.55;;;2.15;;
51190;SDS011;37253;48.736;9.294;2024-01-30T00:59:44;5.55;;;2.20;;
51190;SDS011;37253;48.736;9.294;2024-01-30T01:01:44;2.78;;;2.03;;
51190;SDS011;37253;48.736;9.294;2024-01-30T01:03:44;3.13;;;2.10;;
51190;SDS011;37253;48.736;9.294;2024-01-30T01:05:44;4.53;;;2.00;;
51190;SDS011;37253;48.736;9.294;2024-01-30T01:07:45;3.17;;;2.10;;
51190;SDS011;37253;48.736;9.294;2024-01-30T01:09:47;3.22;;;2.20;;
51190;SDS011;37253;48.736;9.294;2024-01-30T01:11:47;3.38;;;2.45;;
51190;SDS011;37253;48.736;9.294;2024-01-30T01:13:48;3.10;;;2.10;;
51190;SDS011;37253;48.736;9.294;2024-01-30T01:15:48;2.90;;;2.30;;
51190;SDS011;37253;48.736;9.294;2024-01-30T01:17:48;2.63;;;2.00;;
51190;SDS011;37253;48.736;9.294;2024-01-30T01:19:49;2.80;;;1.95;;
51190;SDS011;37253;48.736;9.294;2024-01-30T01:21:49;1.92;;;1.67;;
51190;SDS011;37253;48.736;9.294;2024-01-30T01:23:49;3.13;;;2.10;;
51190;SDS011;37253;48.736;9.294;2024-01-30T01:25:50;3.35;;;2.00;;
51190;SDS011;37253;48.736;9.294;2024-01-30T01:27:50;2.78;;;2.00;;
51190;SDS011;37253;48.736;9.294;2024-01-30T01:29:53;3.45;;;1.92;;
51190;SDS011;37253;48.736;9.294;2024-01-30T01:31:54;2.40;;;2.00;;
51190;SDS011;37253;48.736;9.294;2024-01-30T01:33:55;3.47;;;2.30;;
51190;SDS011;37253;48.736;9.294;2024-01-30T01:35:56;3.33;;;2.10;;
51190;SDS011;37253;48.736;9.294;2024-01-30T01:37:56;3.00;;;1.77;;
51190;SDS011;37253;48.736;9.294;2024-01-30T01:39:58;3.58;;;1.90;;
51190;SDS011;37253;48.736;9.294;2024-01-30T01:41:58;2.97;;;2.03;;
51190;SDS011;37253;48.736;9.294;2024-01-30T01:43:59;3.33;;;2.00;;
51190;SDS011;37253;48.736;9.294;2024-01-30T01:45:59;2.85;;;2.00;;
51190;SDS011;37253;48.736;9.294;2024-01-30T01:48:00;3.75;;;2.08;;
51190;SDS011;37253;48.736;9.294;2024-01-30T01:50:00;3.55;;;2.17;;
51190;SDS011;37253;48.736;9.294;2024-01-30T01:52:00;3.75;;;2.30;;
51190;SDS011;37253;48.736;9.294;2024-01-30T01:54:02;2.75;;;2.25;;
51190;SDS011;37253;48.736;9.294;2024-01-30T01:56:03;3.00;;;2.15;;
51190;SDS011;37253;48.736;9.294;2024-01-30T01:58:05;3.55;;;2.08;;
51190;SDS011;37253;48.736;9.294;2024-01-30T02:00:05;2.95;;;2.05;;
51190;SDS011;37253;48.736;9.294;2024-01-30T02:02:07;2.60;;;1.85;;
51190;SDS011;37253;48.736;9.294;2024-01-30T02:04:11;2.80;;;2.00;;
51190;SDS011;37253;48.736;9.294;2024-01-30T02:06:15;2.90;;;1.80;;
51190;SDS011;37253;48.736;9.294;2024-01-30T02:08:16;5.57;;;2.33;;
51190;SDS011;37253;48.736;9.294;2024-01-30T02:10:16;2.97;;;2.03;;
51190;SDS011;37253;48.736;9.294;2024-01-30T02:12:17;3.05;;;2.10;;
51190;SDS011;37253;48.736;9.294;2024-01-30T02:14:18;3.17;;;2.25;;
51190;SDS011;37253;48.736;9.294;2024-01-30T02:16:18;3.03;;;1.88;;
51190;SDS011;37253;48.736;9.294;2024-01-30T02:18:19;2.65;;;1.67;;
51190;SDS011;37253;48.736;9.294;2024-01-30T02:20:21;2.20;;;1.83;;
51190;SDS011;37253;48.736;9.294;2024-01-30T02:22:22;2.72;;;1.63;;
51190;SDS011;37253;48.736;9.294;2024-01-30T02:24:23;2.03;;;1.83;;
51190;SDS011;37253;48.736;9.294;2024-01-30T02:26:23;2.63;;;1.90;;
51190;SDS011;37253;48.736;9.294;2024-01-30T02:28:24;2.83;;;2.00;;
51190;SDS011;37253;48.736;9.294;2024-01-30T02:30:24;2.75;;;1.90;;
51190;SDS011;37253;48.736;9.294;2024-01-30T02:32:24;2.38;;;1.65;;
51190;SDS011;37253;48.736;9.294;2024-01-30T02:34:25;2.80;;;1.95;;
51190;SDS011;37253;48.736;9.294;2024-01-30T02:36:25;4.10;;;1.92;;
51190;SDS011;37253;48.736;9.294;2024-01-30T02:38:26;2.55;;;1.98;;
51190;SDS011;37253;48.736;9.294;2024-01-30T02:40:26;3.13;;;2.03;;
51190;SDS011;37253;48.736;9.294;2024-01-30T02:42:27;2.80;;;2.00;;
51190;SDS011;37253;48.736;9.294;2024-01-30T02:44:27;4.47;;;2.00;;
51190;SDS011;37253;48.736;9.294;2024-01-30T02:46:27;1.90;;;1.70;;
51190;SDS011;37253;48.736;9.294;2024-01-30T02:48:28;2.17;;;1.90;;
51190;SDS011;37253;48.736;9.294;2024-01-30T02:50:28;2.55;;;1.77;;
51190;SDS011;37253;48.736;9.294;2024-01-30T02:52:28;3.45;;;2.05;;
51190;SDS011;37253;48.736;9.294;2024-01-30T02:54:28;2.63;;;2.10;;
51190;SDS011;37253;48.736;9.294;2024-01-30T02:56:30;2.33;;;1.80;;
51190;SDS011;37253;48.736;9.294;2024-01-30T02:58:31;2.65;;;1.85;;
51190;SDS011;37253;48.736;9.294;2024-01-30T03:00:31;2.10;;;1.88;;
51190;SDS011;37253;48.736;9.294;2024-01-30T03:02:32;2.45;;;2.00;;
51190;SDS011;37253;48.736;9.294;2024-01-30T03:04:32;2.50;;;1.80;;
51190;SDS011;37253;48.736;9.294;2024-01-30T03:06:33;2.17;;;1.85;;
51190;SDS011;37253;48.736;9.294;2024-01-30T03:08:33;2.67;;;1.98;;
51190;SDS011;37253;48.736;9.294;2024-01-30T03:10:35;2.47;;;1.70;;
51190;SDS011;37253;48.736;9.294;2024-01-30T03:12:35;2.67;;;1.90;;
51190;SDS011;37253;48.736;9.294;2024-01-30T03:14:35;2.70;;;1.85;;
51190;SDS011;37253;48.736;9.294;2024-01-30T03:16:36;3.03;;;1.90;;
51190;SDS011;37253;48.736;9.294;2024-01-30T03:18:37;2.13;;;1.85;;
51190;SDS011;37253;48.736;9.294;2024-01-30T03:20:38;2.50;;;1.63;;
51190;SDS011;37253;48.736;9.294;2024-01-30T03:22:38;3.88;;;1.80;;
51190;SDS011;37253;48.736;9.294;2024-01-30T03:24:39;3.83;;;2.00;;
51190;SDS011;37253;48.736;9.294;2024-01-30T03:26:39;2.22;;;1.70;;
51190;SDS011;37253;48.736;9.294;2024-01-30T03:28:39;2.05;;;1.70;;
51190;SDS011;37253;48.736;9.294;2024-01-30T03:30:39;2.00;;;1.75;;
51190;SDS011;37253;48.736;9.294;2024-01-30T03:32:40;2.75;;;1.83;;
51190;SDS011;37253;48.736;9.294;2024-01-30T03:34:40;2.13;;;1.67;;
51190;SDS011;37253;48.736;9.294;2024-01-30T03:36:40;2.63;;;1.95;;
51190;SDS011;37253;48.736;9.294;2024-01-30T03:38:41;2.33;;;1.90;;
51190;SDS011;37253;48.736;9.294;2024-01-30T03:40:41;1.95;;;1.75;;
51190;SDS011;37253;48.736;9.294;2024-01-30T03:42:41;2.10;;;1.65;;
51190;SDS011;37253;48.736;9.294;2024-01-30T03:44:42;1.98;;;1.75;;
51190;SDS011;37253;48.736;9.294;2024-01-30T03:46:42;2.45;;;2.00;;
51190;SDS011;37253;48.736;9.294;2024-01-30T03:48:43;2.80;;;1.90;;
51190;SDS011;37253;48.736;9.294;2024-01-30T03:50:43;3.22;;;1.77;;
51190;SDS011;37253;48.736;9.294;2024-01-30T03:52:43;3.28;;;1.88;;
51190;SDS011;37253;48.736;9.294;2024-01-30T03:54:44;2.35;;;1.80;;
51190;SDS011;37253;48.736;9.294;2024-01-30T03:56:44;2.80;;;1.85;;
51190;SDS011;37253;48.736;9.294;2024-01-30T03:58:44;1.90;;;1.60;;
51190;SDS011;37253;48.736;9.294;2024-01-30T04:00:44;4.10;;;1.88;;
51190;SDS011;37253;48.736;9.294;2024-01-30T04:02:45;2.00;;;1.70;;
51190;SDS011;37253;48.736;9.294;2024-01-30T04:04:45;1.88;;;1.58;;
51190;SDS011;37253;48.736;9.294;2024-01-30T04:06:45;2.63;;;1.73;;
51190;SDS011;37253;48.736;9.294;2024-01-30T04:08:46;1.98;;;1.70;;
51190;SDS011;37253;48.736;9.294;2024-01-30T04:10:46;2.55;;;1.55;;
51190;SDS011;37253;48.736;9.294;2024-01-30T04:12:47;2.20;;;1.83;;
51190;SDS011;37253;48.736;9.294;2024-01-30T04:14:47;1.95;;;1.58;;
51190;SDS011;37253;48.736;9.294;2024-01-30T04:16:47;1.88;;;1.73;;
51190;SDS011;37253;48.736;9.294;2024-01-30T04:18:48;2.53;;;1.90;;
51190;SDS011;37253;48.736;9.294;2024-01-30T04:20:48;2.17;;;1.70;;
51190;SDS011;37253;48.736;9.294;2024-01-30T04:22:49;2.35;;;1.63;;
51190;SDS011;37253;48.736;9.294;2024-01-30T04:24:49;2.95;;;1.65;;
51190;SDS011;37253;48.736;9.294;2024-01-30T04:26:50;2.05;;;1.40;;
51190;SDS011;37253;48.736;9.294;2024-01-30T04:28:50;2.10;;;1.90;;
51190;SDS011;37253;48.736;9.294;2024-01-30T04:30:50;1.73;;;1.40;;
51190;SDS011;37253;48.736;9.294;2024-01-30T04:32:51;2.70;;;1.73;;
51190;SDS011;37253;48.736;9.294;2024-01-30T04:34:51;4.03;;;1.95;;
51190;SDS011;37253;48.736;9.294;2024-01-30T04:36:51;2.25;;;1.67;;
51190;SDS011;37253;48.736;9.294;2024-01-30T04:38:51;3.17;;;1.67;;
51190;SDS011;37253;48.736;9.294;2024-01-30T04:40:52;2.65;;;1.50;;
51190;SDS011;37253;48.736;9.294;2024-01-30T04:42:52;3.13;;;1.80;;
51190;SDS011;37253;48.736;9.294;2024-01-30T04:44:52;2.72;;;1.88;;
51190;SDS011;37253;48.736;9.294;2024-01-30T04:46:53;5.05;;;1.75;;
51190;SDS011;37253;48.736;9.294;2024-01-30T04:48:53;2.42;;;1.67;;
51190;SDS011;37253;48.736;9.294;2024-01-30T04:50:53;1.50;;;1.40;;
51190;SDS011;37253;48.736;9.294;2024-01-30T04:52:54;1.90;;;1.65;;
51190;SDS011;37253;48.736;9.294;2024-01-30T04:54:54;2.00;;;1.63;;
51190;SDS011;37253;48.736;9.294;2024-01-30T04:56:54;2.90;;;1.70;;
51190;SDS011;37253;48.736;9.294;2024-01-30T04:58:55;2.92;;;2.00;;
51190;SDS011;37253;48.736;9.294;2024-01-30T05:00:55;2.25;;;1.67;;
51190;SDS011;37253;48.736;9.294;2024-01-30T05:02:55;2.33;;;1.90;;
51190;SDS011;37253;48.736;9.294;2024-01-30T05:04:56;2.03;;;1.65;;
51190;SDS011;37253;48.736;9.294;2024-01-30T05:06:57;2.30;;;1.70;;
51190;SDS011;37253;48.736;9.294;2024-01-30T05:08:57;2.55;;;1.73;;
51190;SDS011;37253;48.736;9.294;2024-01-30T05:11:01;2.17;;;1.73;;
51190;SDS011;37253;48.736;9.294;2024-01-30T05:13:03;2.42;;;1.95;;
51190;SDS011;37253;48.736;9.294;2024-01-30T05:15:04;2.30;;;1.80;;
51190;SDS011;37253;48.736;9.294;2024-01-30T05:17:04;1.88;;;1.58;;
51190;SDS011;37253;48.736;9.294;2024-01-30T05:19:05;2.13;;;1.88;;
51190;SDS011;37253;48.736;9.294;2024-01-30T05:21:05;2.10;;;1.70;;
51190;SDS011;37253;48.736;9.294;2024-01-30T05:23:05;2.20;;;2.00;;
51190;SDS011;37253;48.736;9.294;2024-01-30T05:25:06;2.08;;;1.88;;
51190;SDS011;37253;48.736;9.294;2024-01-30T05:27:06;4.07;;;1.70;;
51190;SDS011;37253;48.736;9.294;2024-01-30T05:29:06;2.50;;;1.52;;
51190;SDS011;37253;48.736;9.294;2024-01-30T05:31:07;2.42;;;1.55;;
51190;SDS011;37253;48.736;9.294;2024-01-30T05:33:08;2.97;;;1.80;;
51190;SDS011;37253;48.736;9.294;2024-01-30T05:35:09;2.45;;;1.70;;
51190;SDS011;37253;48.736;9.294;2024-01-30T05:37:09;2.05;;;1.60;;
51190;SDS011;37253;48.736;9.294;2024-01-30T05:39:14;2.85;;;1.70;;
51190;SDS011;37253;48.736;9.294;2024-01-30T05:41:14;1.75;;;1.38;;
51190;SDS011;37253;48.736;9.294;2024-01-30T05:43:14;2.13;;;1.65;;
51190;SDS011;37253;48.736;9.294;2024-01-30T05:45:15;2.10;;;1.80;;
51190;SDS011;37253;48.736;9.294;2024-01-30T05:47:15;1.95;;;1.60;;
51190;SDS011;37253;48.736;9.294;2024-01-30T05:49:15;2.55;;;1.60;;
51190;SDS011;37253;48.736;9.294;2024-01-30T05:51:16;2.20;;;1.60;;
51190;SDS011;37253;48.736;9.294;2024-01-30T05:53:16;3.25;;;1.60;;
51190;SDS011;37253;48.736;9.294;2024-01-30T05:55:16;1.80;;;1.60;;
51190;SDS011;37253;48.736;9.294;2024-01-30T05:57:17;1.60;;;1.50;;
51190;SDS011;37253;48.736;9.294;2024-01-30T05:59:17;2.05;;;1.40;;
51190;SDS011;37253;48.736;9.294;2024-01-30T06:01:17;2.50;;;1.67;;
51190;SDS011;37253;48.736;9.294;2024-01-30T06:03:18;3.97;;;1.77;;
51190;SDS011;37253;48.736;9.294;2024-01-30T06:05:18;2.20;;;1.60;;
51190;SDS011;37253;48.736;9.294;2024-01-30T06:07:18;3.42;;;1.75;;
51190;SDS011;37253;48.736;9.294;2024-01-30T06:09:19;1.73;;;1.27;;
51190;SDS011;37253;48.736;9.294;2024-01-30T06:11:19;2.03;;;1.75;;
51190;SDS011;37253;48.736;9.294;2024-01-30T06:13:19;2.35;;;1.70;;
51190;SDS011;37253;48.736;9.294;2024-01-30T06:15:20;2.08;;;1.50;;
51190;SDS011;37253;48.736;9.294;2024-01-30T06:17:20;1.95;;;1.38;;
51190;SDS011;37253;48.736;9.294;2024-01-30T06:19:21;2.78;;;1.60;;
51190;SDS011;37253;48.736;9.294;2024-01-30T06:21:21;4.53;;;1.83;;
51190;SDS011;37253;48.736;9.294;2024-01-30T06:23:22;2.05;;;1.80;;
51190;SDS011;37253;48.736;9.294;2024-01-30T06:25:22;4.25;;;1.45;;
51190;SDS011;37253;48.736;9.294;2024-01-30T06:27:22;4.88;;;1.80;;
51190;SDS011;37253;48.736;9.294;2024-01-30T06:29:23;2.10;;;1.63;;
51190;SDS011;37253;48.736;9.294;2024-01-30T06:31:24;4.00;;;1.85;;
51190;SDS011;37253;48.736;9.294;2024-01-30T06:33:25;2.63;;;1.52;;
51190;SDS011;37253;48.736;9.294;2024-01-30T06:35:25;2.47;;;1.55;;
51190;SDS011;37253;48.736;9.294;2024-01-30T06:37:25;1.90;;;1.50;;
51190;SDS011;37253;48.736;9.294;2024-01-30T06:39:26;3.08;;;1.77;;
51190;SDS011;37253;48.736;9.294;2024-01-30T06:41:26;2.20;;;1.63;;
51190;SDS011;37253;48.736;9.294;2024-01-30T06:43:27;1.63;;;1.38;;
51190;SDS011;37253;48.736;9.294;2024-01-30T06:45:27;1.88;;;1.55;;
51190;SDS011;37253;48.736;9.294;2024-01-30T06:47:27;3.08;;;1.75;;
51190;SDS011;37253;48.736;9.294;2024-01-30T06:49:29;6.43;;;1.75;;
51190;SDS011;37253;48.736;9.294;2024-01-30T06:51:29;1.92;;;1.48;;
51190;SDS011;37253;48.736;9.294;2024-01-30T06:53:29;2.20;;;1.60;;
51190;SDS011;37253;48.736;9.294;2024-01-30T06:55:30;1.95;;;1.75;;
51190;SDS011;37253;48.736;9.294;2024-01-30T06:57:30;5.05;;;1.67;;
51190;SDS011;37253;48.736;9.294;2024-01-30T06:59:31;2.47;;;1.67;;
51190;SDS011;37253;48.736;9.294;2024-01-30T07:01:31;2.55;;;2.00;;
51190;SDS011;37253;48.736;9.294;2024-01-30T07:03:32;4.50;;;1.73;;
51190;SDS011;37253;48.736;9.294;2024-01-30T07:05:32;2.50;;;1.60;;
51190;SDS011;37253;48.736;9.294;2024-01-30T07:07:33;2.22;;;1.90;;
51190;SDS011;37253;48.736;9.294;2024-01-30T07:09:33;1.92;;;1.52;;
51190;SDS011;37253;48.736;9.294;2024-01-30T07:11:34;2.33;;;1.40;;
51190;SDS011;37253;48.736;9.294;2024-01-30T07:13:34;3.25;;;1.73;;
51190;SDS011;37253;48.736;9.294;2024-01-30T07:15:34;6.13;;;1.98;;
51190;SDS011;37253;48.736;9.294;2024-01-30T07:17:36;2.63;;;1.50;;
51190;SDS011;37253;48.736;9.294;2024-01-30T07:19:37;3.00;;;1.80;;
51190;SDS011;37253;48.736;9.294;2024-01-30T07:21:37;7.82;;;1.75;;
51190;SDS011;37253;48.736;9.294;2024-01-30T07:23:40;2.40;;;1.70;;
51190;SDS011;37253;48.736;9.294;2024-01-30T07:25:42;3.00;;;1.60;;
51190;SDS011;37253;48.736;9.294;2024-01-30T07:27:42;1.98;;;1.65;;
51190;SDS011;37253;48.736;9.294;2024-01-30T07:29:43;4.22;;;1.70;;
51190;SDS011;37253;48.736;9.294;2024-01-30T07:31:43;3.78;;;1.83;;
51190;SDS011;37253;48.736;9.294;2024-01-30T07:33:43;2.10;;;1.45;;
51190;SDS011;37253;48.736;9.294;2024-01-30T07:35:45;2.58;;;1.50;;
51190;SDS011;37253;48.736;9.294;2024-01-30T07:37:45;2.35;;;1.65;;
51190;SDS011;37253;48.736;9.294;2024-01-30T07:39:46;3.70;;;1.90;;
51190;SDS011;37253;48.736;9.294;2024-01-30T07:41:47;2.97;;;1.95;;
51190;SDS011;37253;48.736;9.294;2024-01-30T07:43:47;2.63;;;1.65;;
51190;SDS011;37253;48.736;9.294;2024-01-30T07:45:47;1.63;;;1.52;;
51190;SDS011;37253;48.736;9.294;2024-01-30T07:47:48;5.25;;;1.55;;
51190;SDS011;37253;48.736;9.294;2024-01-30T07:49:49;3.17;;;1.50;;
51190;SDS011;37253;48.736;9.294;2024-01-30T07:51:49;2.25;;;1.30;;
51190;SDS011;37253;48.736;9.294;2024-01-30T07:53:50;3.53;;;1.90;;
51190;SDS011;37253;48.736;9.294;2024-01-30T07:55:50;4.63;;;1.90;;
51190;SDS011;37253;48.736;9.294;2024-01-30T07:57:53;2.63;;;2.10;;
51190;SDS011;37253;48.736;9.294;2024-01-30T07:59:54;2.17;;;1.35;;
51190;SDS011;37253;48.736;9.294;2024-01-30T08:01:55;1.60;;;1.50;;
51190;SDS011;37253;48.736;9.294;2024-01-30T08:03:55;3.20;;;1.77;;
51190;SDS011;37253;48.736;9.294;2024-01-30T08:05:55;3.20;;;2.10;;
51190;SDS011;37253;48.736;9.294;2024-01-30T08:07:56;2.10;;;1.65;;
51190;SDS011;37253;48.736;9.294;2024-01-30T08:09:56;5.05;;;1.77;;
51190;SDS011;37253;48.736;9.294;2024-01-30T08:11:56;2.63;;;1.90;;
51190;SDS011;37253;48.736;9.294;2024-01-30T08:13:56;2.90;;;1.67;;
51190;SDS011;37253;48.736;9.294;2024-01-30T08:15:57;3.55;;;1.80;;
51190;SDS011;37253;48.736;9.294;2024-01-30T08:17:57;3.70;;;1.60;;
51190;SDS011;37253;48.736;9.294;2024-01-30T08:19:58;4.43;;;1.98;;
51190;SDS011;37253;48.736;9.294;2024-01-30T08:21:59;4.25;;;2.70;;
51190;SDS011;37253;48.736;9.294;2024-01-30T08:23:59;7.82;;;2.72;;
51190;SDS011;37253;48.736;9.294;2024-01-30T08:26:00;4.80;;;2.42;;
51190;SDS011;37253;48.736;9.294;2024-01-30T08:28:00;4.90;;;2.42;;
51190;SDS011;37253;48.736;9.294;2024-01-30T08:30:01;4.53;;;2.22;;
51190;SDS011;37253;48.736;9.294;2024-01-30T08:32:04;4.00;;;2.55;;
51190;SDS011;37253;48.736;9.294;2024-01-30T08:34:05;4.88;;;2.13;;
51190;SDS011;37253;48.736;9.294;2024-01-30T08:36:05;6.50;;;2.25;;
51190;SDS011;37253;48.736;9.294;2024-01-30T08:38:06;3.85;;;2.30;;
51190;SDS011;37253;48.736;9.294;2024-01-30T08:40:07;4.95;;;2.45;;
51190;SDS011;37253;48.736;9.294;2024-01-30T08:42:08;3.75;;;2.20;;
51190;SDS011;37253;48.736;9.294;2024-01-30T08:44:08;6.15;;;2.50;;
51190;SDS011;37253;48.736;9.294;2024-01-30T08:46:11;8.18;;;2.38;;
51190;SDS011;37253;48.736;9.294;2024-01-30T08:48:11;7.30;;;2.35;;
51190;SDS011;37253;48.736;9.294;2024-01-30T08:50:11;7.72;;;2.45;;
51190;SDS011;37253;48.736;9.294;2024-01-30T08:52:12;3.22;;;2.60;;
51190;SDS011;37253;48.736;9.294;2024-01-30T08:54:12;7.30;;;2.17;;
51190;SDS011;37253;48.736;9.294;2024-01-30T08:56:12;5.75;;;2.17;;
51190;SDS011;37253;48.736;9.294;2024-01-30T08:58:13;7.82;;;2.28;;
51190;SDS011;37253;48.736;9.294;2024-01-30T09:00:14;5.93;;;2.85;;
51190;SDS011;37253;48.736;9.294;2024-01-30T09:02:14;3.67;;;2.22;;
51190;SDS011;37253;48.736;9.294;2024-01-30T09:04:16;4.60;;;2.70;;
51190;SDS011;37253;48.736;9.294;2024-01-30T09:06:16;9.55;;;3.10;;
51190;SDS011;37253;48.736;9.294;2024-01-30T09:08:16;9.57;;;2.65;;
51190;SDS011;37253;48.736;9.294;2024-01-30T09:10:17;3.03;;;2.22;;
51190;SDS011;37253;48.736;9.294;2024-01-30T09:12:17;7.68;;;2.28;;
51190;SDS011;37253;48.736;9.294;2024-01-30T09:14:17;4.35;;;2.22;;
51190;SDS011;37253;48.736;9.294;2024-01-30T09:16:18;9.95;;;2.22;;
51190;SDS011;37253;48.736;9.294;2024-01-30T09:18:18;6.95;;;2.00;;
51190;SDS011;37253;48.736;9.294;2024-01-30T09:20:18;10.25;;;2.58;;
51190;SDS011;37253;48.736;9.294;2024-01-30T09:22:20;6.22;;;2.55;;
51190;SDS011;37253;48.736;9.294;2024-01-30T09:24:20;7.90;;;2.08;;
51190;SDS011;37253;48.736;9.294;2024-01-30T09:26:21;4.43;;;2.42;;
51190;SDS011;37253;48.736;9.294;2024-01-30T09:28:21;3.67;;;2.10;;
51190;SDS011;37253;48.736;9.294;2024-01-30T09:30:22;4.97;;;2.55;;
51190;SDS011;37253;48.736;9.294;2024-01-30T09:32:22;7.65;;;2.65;;
51190;SDS011;37253;48.736;9.294;2024-01-30T09:34:22;4.55;;;2.20;;
51190;SDS011;37253;48.736;9.294;2024-01-30T09:36:23;5.15;;;2.45;;
51190;SDS011;37253;48.736;9.294;2024-01-30T09:38:23;4.45;;;1.95;;
51190;SDS011;37253;48.736;9.294;2024-01-30T09:40:23;10.32;;;2.63;;
51190;SDS011;37253;48.736;9.294;2024-01-30T09:44:24;9.45;;;2.15;;
51190;SDS011;37253;48.736;9.294;2024-01-30T09:46:26;6.68;;;2.30;;
51190;SDS011;37253;48.736;9.294;2024-01-30T09:48:27;3.25;;;2.10;;
51190;SDS011;37253;48.736;9.294;2024-01-30T09:50:30;3.67;;;2.30;;
51190;SDS011;37253;48.736;9.294;2024-01-30T09:52:31;4.25;;;2.42;;
51190;SDS011;37253;48.736;9.294;2024-01-30T09:54:31;4.18;;;1.95;;
51190;SDS011;37253;48.736;9.294;2024-01-30T09:56:31;6.72;;;2.35;;
51190;SDS011;37253;48.736;9.294;2024-01-30T09:58:32;4.43;;;2.50;;
51190;SDS011;37253;48.736;9.294;2024-01-30T10:00:32;3.90;;;2.60;;
51190;SDS011;37253;48.736;9.294;2024-01-30T10:02:32;4.43;;;2.40;;
51190;SDS011;37253;48.736;9.294;2024-01-30T10:04:33;2.65;;;2.33;;
51190;SDS011;37253;48.736;9.294;2024-01-30T10:06:33;8.43;;;2.58;;
51190;SDS011;37253;48.736;9.294;2024-01-30T10:08:34;2.58;;;1.98;;
51190;SDS011;37253;48.736;9.294;2024-01-30T10:10:34;4.40;;;2.40;;
51190;SDS011;37253;48.736;9.294;2024-01-30T10:12:35;3.10;;;2.17;;
51190;SDS011;37253;48.736;9.294;2024-01-30T10:14:39;4.55;;;2.20;;
51190;SDS011;37253;48.736;9.294;2024-01-30T10:16:39;5.22;;;2.90;;
51190;SDS011;37253;48.736;9.294;2024-01-30T10:18:40;6.10;;;2.22;;
51190;SDS011;37253;48.736;9.294;2024-01-30T10:20:41;4.90;;;2.50;;
51190;SDS011;37253;48.736;9.294;2024-01-30T10:22:41;2.92;;;2.08;;
51190;SDS011;37253;48.736;9.294;2024-01-30T10:24:45;4.70;;;2.25;;
51190;SDS011;37253;48.736;9.294;2024-01-30T10:26:46;3.92;;;2.28;;
51190;SDS011;37253;48.736;9.294;2024-01-30T10:28:47;3.50;;;2.22;;
51190;SDS011;37253;48.736;9.294;2024-01-30T10:30:56;10.35;;;4.07;;
51190;SDS011;37253;48.736;9.294;2024-01-30T10:32:57;30.45;;;9.15;;
51190;SDS011;37253;48.736;9.294;2024-01-30T10:34:58;70.95;;;18.10;;
51190;SDS011;37253;48.736;9.294;2024-01-30T10:39:12;88.70;;;25.88;;
51190;SDS011;37253;48.736;9.294;2024-01-30T10:41:14;181.57;;;50.85;;
51190;SDS011;37253;48.736;9.294;2024-01-30T10:43:18;141.55;;;42.55;;
51190;SDS011;37253;48.736;9.294;2024-01-30T10:45:20;93.07;;;29.50;;
51190;SDS011;37253;48.736;9.294;2024-01-30T10:47:25;80.13;;;24.15;;
51190;SDS011;37253;48.736;9.294;2024-01-30T10:49:27;92.85;;;26.15;;
51190;SDS011;37253;48.736;9.294;2024-01-30T10:51:27;74.03;;;21.65;;
51190;SDS011;37253;48.736;9.294;2024-01-30T10:53:28;91.47;;;25.50;;
51190;SDS011;37253;48.736;9.294;2024-01-30T10:55:29;77.63;;;22.55;;
51190;SDS011;37253;48.736;9.294;2024-01-30T10:57:30;82.28;;;27.48;;
51190;SDS011;37253;48.736;9.294;2024-01-30T10:59:31;81.88;;;24.38;;
51190;SDS011;37253;48.736;9.294;2024-01-30T11:01:33;68.72;;;20.60;;
51190;SDS011;37253;48.736;9.294;2024-01-30T11:03:35;62.05;;;17.45;;
51190;SDS011;37253;48.736;9.294;2024-01-30T11:05:36;61.47;;;18.45;;
51190;SDS011;37253;48.736;9.294;2024-01-30T11:07:40;60.20;;;16.48;;
51190;SDS011;37253;48.736;9.294;2024-01-30T11:09:48;57.33;;;17.88;;
51190;SDS011;37253;48.736;9.294;2024-01-30T11:11:55;55.20;;;17.23;;
51190;SDS011;37253;48.736;9.294;2024-01-30T11:14:00;58.55;;;17.20;;
51190;SDS011;37253;48.736;9.294;2024-01-30T11:16:04;49.65;;;15.27;;
51190;SDS011;37253;48.736;9.294;2024-01-30T11:18:05;39.17;;;13.95;;
51190;SDS011;37253;48.736;9.294;2024-01-30T11:20:09;40.17;;;13.57;;
51190;SDS011;37253;48.736;9.294;2024-01-30T11:22:10;44.17;;;13.35;;
51190;SDS011;37253;48.736;9.294;2024-01-30T11:24:11;38.28;;;13.00;;
51190;SDS011;37253;48.736;9.294;2024-01-30T11:28:14;37.35;;;11.93;;
51190;SDS011;37253;48.736;9.294;2024-01-30T11:30:25;32.55;;;12.15;;
51190;SDS011;37253;48.736;9.294;2024-01-30T11:32:26;37.45;;;11.52;;
51190;SDS011;37253;48.736;9.294;2024-01-30T11:34:26;33.58;;;11.68;;
51190;SDS011;37253;48.736;9.294;2024-01-30T11:36:26;32.03;;;10.65;;
51190;SDS011;37253;48.736;9.294;2024-01-30T11:38:27;34.88;;;11.55;;
51190;SDS011;37253;48.736;9.294;2024-01-30T11:40:28;32.17;;;10.57;;
51190;SDS011;37253;48.736;9.294;2024-01-30T11:42:29;33.70;;;11.32;;
51190;SDS011;37253;48.736;9.294;2024-01-30T11:44:30;34.38;;;11.00;;
51190;SDS011;37253;48.736;9.294;2024-01-30T11:46:30;32.30;;;10.80;;
51190;SDS011;37253;48.736;9.294;2024-01-30T11:48:30;31.02;;;10.07;;
51190;SDS011;37253;48.736;9.294;2024-01-30T11:50:31;29.60;;;9.65;;
51190;SDS011;37253;48.736;9.294;2024-01-30T11:52:33;30.95;;;10.07;;
51190;SDS011;37253;48.736;9.294;2024-01-30T11:54:34;25.85;;;9.23;;
51190;SDS011;37253;48.736;9.294;2024-01-30T11:56:34;27.65;;;9.25;;
51190;SDS011;37253;48.736;9.294;2024-01-30T11:58:34;32.45;;;9.95;;
51190;SDS011;37253;48.736;9.294;2024-01-30T12:00:35;23.60;;;8.32;;
51190;SDS011;37253;48.736;9.294;2024-01-30T12:02:36;27.33;;;8.77;;
51190;SDS011;37253;48.736;9.294;2024-01-30T12:04:36;24.33;;;8.30;;
51190;SDS011;37253;48.736;9.294;2024-01-30T12:06:37;23.50;;;9.13;;
51190;SDS011;37253;48.736;9.294;2024-01-30T12:08:38;22.35;;;8.55;;
51190;SDS011;37253;48.736;9.294;2024-01-30T12:10:38;20.50;;;8.57;;
51190;SDS011;37253;48.736;9.294;2024-01-30T12:12:38;23.42;;;8.73;;